Michael S — WDE9794 — position and weather

sailwx.info

Track history (hours):
 
Tides and Currents Weather Stations Pressure Air Temp Water Temp Dewpoint Dewpoint Depression Visibility Wind Speed Wind Dir Waves Ship Positions

Michael S

More information available from US FCC via Universal Licensing System and Coast Guard Vessel Documentation Center.

Last reported at 2014-Jul-31 23:32 UTC. Time now 2014-Jul-31 23:45 UTC.
Position N 29°35' W 090°37'.

Length 33 m; draft 3 m.

Type: Towing. MMSI: 367413700.

Date/timePositionNaut miles runAvg speedWind from/ knotsBaromVisibWave heightAir tempDewpointWater temp
2014-Jul-31 23:32N 29°35' W 090°37'0 0.0
2014-Jul-31 22:32N 29°35' W 090°37'0 0.0
2014-Jul-31 21:32N 29°35' W 090°37'0 0.0
2014-Jul-31 20:32N 29°35' W 090°37'0 0.0
2014-Jul-31 19:32N 29°35' W 090°37'0 0.0
2014-Jul-31 18:32N 29°35' W 090°37'0 0.0
2014-Jul-31 17:32N 29°35' W 090°37'0 0.0
2014-Jul-31 15:14N 29°35' W 090°37'0 0.0
2014-Jul-31 14:32N 29°35' W 090°37'0 0.0
2014-Jul-31 13:32N 29°35' W 090°37'0 0.0
2014-Jul-31 12:32N 29°35' W 090°37'0 0.0
2014-Jul-31 11:20N 29°35' W 090°37'0 0.0
2014-Jul-31 10:32N 29°35' W 090°37'0 0.0
2014-Jul-31 09:32N 29°35' W 090°37'0 0.0
2014-Jul-31 08:29N 29°35' W 090°37'0 0.0
2014-Jul-31 07:32N 29°35' W 090°37'0 0.0
2014-Jul-31 06:32N 29°35' W 090°37'0 0.0
2014-Jul-31 05:32N 29°35' W 090°37'0 0.0
2014-Jul-31 04:32N 29°35' W 090°37'0 0.0
2014-Jul-31 03:32N 29°35' W 090°37'0 0.0
2014-Jul-31 02:32N 29°35' W 090°37'0 0.0
2014-Jul-31 01:29N 29°35' W 090°37'0 0.0
2014-Jul-31 00:32N 29°35' W 090°37'0 0.0
2014-Jul-30 23:32N 29°35' W 090°37'0 0.0
2014-Jul-30 22:32N 29°35' W 090°37'0 0.0
2014-Jul-30 21:26N 29°35' W 090°37'0 0.0
2014-Jul-30 20:32N 29°35' W 090°37'0 0.0
2014-Jul-30 19:32N 29°35' W 090°37'0 0.0
2014-Jul-30 18:32N 29°35' W 090°37'0 0.0
2014-Jul-30 17:32N 29°35' W 090°37'0 0.0
2014-Jul-30 16:12N 29°35' W 090°37'0 0.1
2014-Jul-30 15:33N 29°35' W 090°36'0 0.0
2014-Jul-30 14:33N 29°35' W 090°36'0 0.0
2014-Jul-30 13:33N 29°35' W 090°36'0 0.0
2014-Jul-29 23:18N 29°35' W 090°36'5 6.5
2014-Jul-29 22:33N 29°34' W 090°31'7 6.6
2014-Jul-29 21:30N 29°34' W 090°23'22 2.3
2014-Jul-29 12:10N 29°56' W 090°20'7 6.6
2014-Jul-29 11:12N 29°56' W 090°13'  
Track history (hours):
 
Tides and Currents Weather Stations Pressure Air Temp Water Temp Dewpoint Dewpoint Depression Visibility Wind Speed Wind Dir Waves Ship Positions

Michael S

More information available from US FCC via Universal Licensing System and Coast Guard Vessel Documentation Center.

Last reported at 2014-Jul-31 23:32 UTC. Time now 2014-Jul-31 23:45 UTC.
Position N 29°35' W 090°37'.

Length 33 m; draft 3 m.

Type: Towing. MMSI: 367413700.

Date/timePositionNaut miles runAvg speedWind from/ knotsBaromVisibWave heightAir tempDewpointWater temp
2014-Jul-31 23:32N 29°35' W 090°37'0 0.0
2014-Jul-31 22:32N 29°35' W 090°37'0 0.0
2014-Jul-31 21:32N 29°35' W 090°37'0 0.0
2014-Jul-31 20:32N 29°35' W 090°37'0 0.0
2014-Jul-31 19:32N 29°35' W 090°37'0 0.0
2014-Jul-31 18:32N 29°35' W 090°37'0 0.0
2014-Jul-31 17:32N 29°35' W 090°37'0 0.0
2014-Jul-31 15:14N 29°35' W 090°37'0 0.0
2014-Jul-31 14:32N 29°35' W 090°37'0 0.0
2014-Jul-31 13:32N 29°35' W 090°37'0 0.0
2014-Jul-31 12:32N 29°35' W 090°37'0 0.0
2014-Jul-31 11:20N 29°35' W 090°37'0 0.0
2014-Jul-31 10:32N 29°35' W 090°37'0 0.0
2014-Jul-31 09:32N 29°35' W 090°37'0 0.0
2014-Jul-31 08:29N 29°35' W 090°37'0 0.0
2014-Jul-31 07:32N 29°35' W 090°37'0 0.0
2014-Jul-31 06:32N 29°35' W 090°37'0 0.0
2014-Jul-31 05:32N 29°35' W 090°37'0 0.0
2014-Jul-31 04:32N 29°35' W 090°37'0 0.0
2014-Jul-31 03:32N 29°35' W 090°37'0 0.0
2014-Jul-31 02:32N 29°35' W 090°37'0 0.0
2014-Jul-31 01:29N 29°35' W 090°37'0 0.0
2014-Jul-31 00:32N 29°35' W 090°37'0 0.0
2014-Jul-30 23:32N 29°35' W 090°37'0 0.0
2014-Jul-30 22:32N 29°35' W 090°37'0 0.0
2014-Jul-30 21:26N 29°35' W 090°37'0 0.0
2014-Jul-30 20:32N 29°35' W 090°37'0 0.0
2014-Jul-30 19:32N 29°35' W 090°37'0 0.0
2014-Jul-30 18:32N 29°35' W 090°37'0 0.0
2014-Jul-30 17:32N 29°35' W 090°37'0 0.0
2014-Jul-30 16:12N 29°35' W 090°37'0 0.1
2014-Jul-30 15:33N 29°35' W 090°36'0 0.0
2014-Jul-30 14:33N 29°35' W 090°36'0 0.0
2014-Jul-30 13:33N 29°35' W 090°36'0 0.0
2014-Jul-29 23:18N 29°35' W 090°36'5 6.5
2014-Jul-29 22:33N 29°34' W 090°31'7 6.6
2014-Jul-29 21:30N 29°34' W 090°23'22 2.3
2014-Jul-29 12:10N 29°56' W 090°20'7 6.6
2014-Jul-29 11:12N 29°56' W 090°13'  

Dump ship's entire track history